Time;durP1;ratioP1;P1;durP2;ratioP2;P2;SDS_P1;SDS_P2;PMS_P1;PMS_P2;Temp;Humidity;BMP_temperature;BMP_pressure;BME280_temperature;BME280_humidity;BME280_pressure;Samples;Min_cycle;Max_cycle;Signal;HPM_P1;HPM_P2
2022/08/29 00:02:08;;;;;;;4.90;2.20;;;16.50;99.90;;;;;;5000088;28;20124;-75
2022/08/29 00:04:34;;;;;;;9.27;2.45;;;16.50;99.90;;;;;;5010855;28;20501;-75
2022/08/29 00:07:00;;;;;;;6.82;2.22;;;16.40;99.90;;;;;;5011233;28;20046;-76
2022/08/29 00:09:26;;;;;;;9.52;2.38;;;16.40;99.90;;;;;;5011176;28;20386;-76
2022/08/29 00:11:51;;;;;;;6.20;2.40;;;16.40;99.90;;;;;;5011399;28;20072;-75
2022/08/29 00:14:17;;;;;;;4.82;1.98;;;16.40;99.90;;;;;;5000628;28;20022;-76
2022/08/29 00:16:43;;;;;;;4.85;2.28;;;16.30;99.90;;;;;;5007678;28;20479;-75
2022/08/29 00:19:08;;;;;;;7.85;2.28;;;16.30;99.90;;;;;;5011379;28;20113;-75
2022/08/29 00:21:34;;;;;;;3.72;2.38;;;16.30;99.90;;;;;;5010747;28;20072;-76
2022/08/29 00:23:59;;;;;;;9.25;2.35;;;16.20;99.90;;;;;;5010652;28;20108;-75
2022/08/29 00:26:25;;;;;;;7.15;2.50;;;16.20;99.90;;;;;;4999001;28;20034;-76
2022/08/29 00:28:50;;;;;;;6.38;2.50;;;16.20;99.90;;;;;;5009325;28;20029;-76
2022/08/29 00:31:16;;;;;;;6.30;2.15;;;16.10;99.90;;;;;;5010952;28;20026;-76
2022/08/29 00:33:41;;;;;;;5.10;2.60;;;16.10;99.90;;;;;;4996819;28;20026;-75
2022/08/29 00:36:08;;;;;;;4.45;2.22;;;16.10;99.90;;;;;;5002645;28;20356;-75
2022/08/29 00:38:34;;;;;;;7.30;2.30;;;16.00;99.90;;;;;;5005249;28;20021;-75
2022/08/29 00:41:00;;;;;;;5.85;2.20;;;16.00;99.90;;;;;;5010687;28;20203;-75
2022/08/29 00:43:29;;;;;;;4.90;2.08;;;16.00;99.90;;;;;;5002528;28;20049;-75
2022/08/29 00:46:12;;;;;;;5.57;2.50;;;15.90;99.90;;;;;;5007217;28;20022;-77
2022/08/29 00:48:40;;;;;;;5.38;2.30;;;15.90;99.90;;;;;;4999453;28;20031;-76
2022/08/29 00:51:19;;;;;;;4.65;2.45;;;15.90;99.90;;;;;;5009012;28;20049;-75
2022/08/29 00:53:48;;;;;;;6.65;2.45;;;15.80;99.90;;;;;;5005981;28;20022;-75
2022/08/29 00:56:16;;;;;;;7.47;2.50;;;15.80;99.90;;;;;;5002215;28;20034;-75
2022/08/29 00:58:48;;;;;;;5.25;2.10;;;15.70;99.90;;;;;;5010289;28;20390;-76
2022/08/29 01:01:14;;;;;;;5.93;2.25;;;15.70;99.90;;;;;;5000801;28;20360;-76
2022/08/29 01:03:41;;;;;;;5.57;2.58;;;15.70;99.90;;;;;;5006522;28;20041;-75
2022/08/29 01:06:07;;;;;;;5.30;2.40;;;15.70;99.90;;;;;;5010477;28;20094;-75
2022/08/29 01:08:34;;;;;;;6.95;2.63;;;15.60;99.90;;;;;;4996633;28;20019;-77
2022/08/29 01:13:49;;;;;;;5.20;2.43;;;15.60;99.90;;;;;;4990858;28;20379;-75
2022/08/29 01:16:16;;;;;;;7.22;2.90;;;15.60;99.90;;;;;;4991450;28;20639;-75
2022/08/29 01:18:44;;;;;;;6.45;2.72;;;15.50;99.90;;;;;;5004175;28;20104;-75
2022/08/29 01:21:27;;;;;;;6.18;2.53;;;15.50;99.90;;;;;;5004966;28;20085;-75
2022/08/29 01:24:14;;;;;;;6.75;2.53;;;15.50;99.90;;;;;;4990780;28;20030;-75
2022/08/29 01:26:43;;;;;;;6.80;2.70;;;15.50;99.90;;;;;;5010287;28;20028;-74
2022/08/29 01:29:08;;;;;;;5.18;2.53;;;15.50;99.90;;;;;;4994854;28;20161;-75
2022/08/29 01:31:43;;;;;;;7.95;2.60;;;15.50;99.90;;;;;;4998127;28;20108;-75
2022/08/29 01:34:09;;;;;;;8.37;2.33;;;15.50;99.90;;;;;;5009942;28;20026;-75
2022/08/29 01:36:38;;;;;;;8.50;3.00;;;15.50;99.90;;;;;;5010356;28;20348;-75
2022/08/29 01:39:05;;;;;;;7.53;2.67;;;15.50;99.90;;;;;;4997323;28;20026;-75
2022/08/29 01:41:31;;;;;;;5.13;2.72;;;15.40;99.90;;;;;;5004396;28;20381;-75
2022/08/29 01:43:57;;;;;;;6.97;3.10;;;15.40;99.90;;;;;;4990367;28;20536;-75
2022/08/29 01:46:29;;;;;;;7.53;3.10;;;15.40;99.90;;;;;;4993647;28;20097;-74
2022/08/29 01:48:55;;;;;;;5.40;3.05;;;15.30;99.90;;;;;;5010035;28;20033;-75
2022/08/29 01:51:21;;;;;;;6.28;2.88;;;15.30;99.90;;;;;;4994629;28;20029;-75
2022/08/29 01:53:47;;;;;;;5.78;3.17;;;15.30;99.90;;;;;;4990908;28;20030;-75
2022/08/29 01:56:18;;;;;;;5.82;3.33;;;15.30;99.90;;;;;;5005858;28;20030;-74
2022/08/29 01:58:46;;;;;;;6.18;3.17;;;15.30;99.90;;;;;;4999717;28;20054;-75
2022/08/29 02:01:14;;;;;;;8.07;3.30;;;15.30;99.90;;;;;;5001078;28;20015;-75
2022/08/29 02:03:40;;;;;;;6.40;3.55;;;15.20;99.90;;;;;;5011731;28;20030;-75
2022/08/29 02:06:08;;;;;;;8.07;3.53;;;15.20;99.90;;;;;;5003086;28;20033;-75
2022/08/29 02:08:35;;;;;;;10.75;3.80;;;15.20;99.90;;;;;;5010629;28;20447;-75
2022/08/29 02:11:01;;;;;;;8.27;3.80;;;15.20;99.90;;;;;;5013191;28;20101;-75
2022/08/29 02:13:27;;;;;;;9.80;3.90;;;15.20;99.90;;;;;;5013022;28;20109;-74
2022/08/29 02:15:52;;;;;;;5.22;3.17;;;15.20;99.90;;;;;;5013068;28;20017;-75
2022/08/29 02:18:18;;;;;;;9.05;3.70;;;15.10;99.90;;;;;;5021393;28;20359;-75
2022/08/29 02:20:45;;;;;;;7.65;3.80;;;15.10;99.90;;;;;;4999385;28;20056;-75
2022/08/29 02:23:10;;;;;;;9.00;3.92;;;15.20;99.90;;;;;;5012861;28;20108;-74
2022/08/29 02:25:42;;;;;;;7.78;3.70;;;15.10;99.90;;;;;;4999359;28;20451;-74
2022/08/29 02:28:14;;;;;;;7.72;3.50;;;15.10;99.90;;;;;;5012999;28;20493;-75
2022/08/29 02:30:41;;;;;;;7.70;3.75;;;15.10;99.90;;;;;;4999234;28;20032;-74
2022/08/29 02:33:08;;;;;;;6.78;3.17;;;15.10;99.90;;;;;;5012917;28;20030;-75
2022/08/29 02:35:35;;;;;;;5.63;3.40;;;15.10;99.90;;;;;;5012701;28;20080;-75
2022/08/29 02:38:02;;;;;;;5.57;3.17;;;15.10;99.90;;;;;;5013235;28;20018;-75
2022/08/29 02:40:28;;;;;;;8.40;3.60;;;15.10;99.90;;;;;;4999639;28;20045;-74
2022/08/29 02:42:54;;;;;;;7.15;3.33;;;15.00;99.90;;;;;;4991333;28;20046;-75
2022/08/29 02:45:21;;;;;;;8.32;3.60;;;15.00;99.90;;;;;;5004324;28;20022;-75
2022/08/29 02:47:47;;;;;;;8.60;3.50;;;15.00;99.90;;;;;;4998785;28;20033;-75
2022/08/29 02:50:13;;;;;;;7.55;3.47;;;15.00;99.90;;;;;;5006869;28;20034;-75
2022/08/29 02:52:40;;;;;;;6.75;3.50;;;15.00;99.90;;;;;;4992877;28;20034;-75
2022/08/29 02:55:09;;;;;;;7.28;3.60;;;15.00;99.90;;;;;;5009203;28;20028;-75
2022/08/29 02:57:34;;;;;;;9.25;3.70;;;15.00;99.90;;;;;;5002448;28;20100;-75
2022/08/29 03:00:00;;;;;;;8.57;3.53;;;15.00;99.90;;;;;;5008741;28;20026;-75
2022/08/29 03:02:26;;;;;;;9.40;3.83;;;15.00;99.90;;;;;;5012109;28;20026;-75
2022/08/29 03:04:52;;;;;;;7.53;3.65;;;15.00;99.90;;;;;;4998218;28;20038;-75
2022/08/29 03:07:18;;;;;;;8.52;3.63;;;15.00;99.90;;;;;;4999041;28;20037;-75
2022/08/29 03:09:43;;;;;;;6.97;3.53;;;15.00;99.90;;;;;;5000587;28;20429;-74
2022/08/29 03:12:09;;;;;;;9.77;4.00;;;14.90;99.90;;;;;;4996646;28;20274;-75
2022/08/29 03:14:35;;;;;;;6.30;3.45;;;14.90;99.90;;;;;;5012069;28;20034;-75
2022/08/29 03:17:00;;;;;;;8.75;3.60;;;14.90;99.90;;;;;;5011910;28;20024;-75
2022/08/29 03:19:26;;;;;;;6.25;3.30;;;14.90;99.90;;;;;;5012273;28;20068;-75
2022/08/29 03:21:51;;;;;;;5.78;3.45;;;14.90;99.90;;;;;;5011981;28;20014;-74
2022/08/29 03:24:17;;;;;;;7.15;4.00;;;14.90;99.90;;;;;;4998291;28;20390;-75
2022/08/29 03:26:43;;;;;;;5.95;3.78;;;14.80;99.90;;;;;;5011572;28;20037;-74
2022/08/29 03:29:08;;;;;;;9.40;3.70;;;14.80;99.90;;;;;;4997859;28;20287;-75
2022/08/29 03:31:34;;;;;;;9.25;4.10;;;14.80;99.90;;;;;;5001894;28;20022;-76
2022/08/29 03:34:00;;;;;;;9.13;4.25;;;14.70;99.90;;;;;;5008229;28;20482;-75
2022/08/29 03:36:25;;;;;;;6.35;3.80;;;14.70;99.90;;;;;;5011742;28;20052;-75
2022/08/29 03:38:51;;;;;;;8.13;4.38;;;14.70;99.90;;;;;;5010210;28;20065;-75
2022/08/29 03:41:23;;;;;;;10.45;4.60;;;14.70;99.90;;;;;;5011362;28;20026;-74
2022/08/29 03:43:48;;;;;;;11.63;4.07;;;14.70;99.90;;;;;;5011393;28;20046;-75
2022/08/29 03:46:14;;;;;;;9.15;4.22;;;14.70;99.90;;;;;;5005129;28;20037;-75
2022/08/29 03:48:40;;;;;;;7.85;3.83;;;14.60;99.90;;;;;;4991616;28;20054;-76
2022/08/29 03:51:06;;;;;;;9.27;4.25;;;14.60;99.90;;;;;;5004500;28;20022;-75
2022/08/29 03:53:32;;;;;;;6.78;3.97;;;14.60;99.90;;;;;;4992889;28;20046;-75
2022/08/29 03:55:58;;;;;;;9.75;3.88;;;14.60;99.90;;;;;;5002704;28;20029;-75
2022/08/29 03:58:23;;;;;;;8.98;4.00;;;14.50;99.90;;;;;;4997363;28;20018;-75
2022/08/29 04:00:49;;;;;;;11.00;4.05;;;14.50;99.90;;;;;;5002330;28;20068;-75
2022/08/29 04:03:15;;;;;;;10.75;4.15;;;14.50;99.90;;;;;;5005196;28;20034;-74
2022/08/29 04:05:40;;;;;;;8.55;4.10;;;14.50;99.90;;;;;;4998603;28;20144;-75
2022/08/29 04:08:07;;;;;;;5.82;3.63;;;14.50;99.90;;;;;;5011081;28;20026;-75
2022/08/29 04:10:36;;;;;;;8.20;4.30;;;14.50;99.90;;;;;;4997555;28;20374;-75
2022/08/29 04:13:02;;;;;;;6.93;4.30;;;14.50;99.90;;;;;;5011060;28;20033;-75
2022/08/29 04:15:31;;;;;;;7.30;3.83;;;14.50;99.90;;;;;;5004104;28;20534;-75
2022/08/29 04:17:59;;;;;;;5.78;3.80;;;14.50;99.90;;;;;;5008944;28;20118;-75
2022/08/29 04:20:28;;;;;;;6.22;4.20;;;14.40;99.90;;;;;;5004160;28;20422;-74
2022/08/29 04:22:58;;;;;;;9.38;4.15;;;14.50;99.90;;;;;;5010969;28;20056;-75
2022/08/29 04:25:25;;;;;;;9.02;3.88;;;14.50;99.90;;;;;;5010748;28;20338;-75
2022/08/29 04:27:52;;;;;;;9.05;3.70;;;14.50;99.90;;;;;;5010724;28;20029;-75
2022/08/29 04:30:19;;;;;;;7.80;3.80;;;14.50;99.90;;;;;;5003295;28;20022;-75
2022/08/29 04:32:46;;;;;;;8.60;4.15;;;14.50;99.90;;;;;;4991124;28;20046;-74
2022/08/29 04:35:13;;;;;;;7.85;4.05;;;14.50;99.90;;;;;;5007192;28;20018;-76
2022/08/29 04:37:40;;;;;;;11.57;4.35;;;14.40;99.90;;;;;;4994455;28;20478;-76
2022/08/29 04:40:08;;;;;;;8.40;4.32;;;14.40;99.90;;;;;;5010206;28;20040;-77
2022/08/29 04:42:37;;;;;;;6.93;4.35;;;14.50;99.90;;;;;;5009104;28;20062;-74
2022/08/29 04:45:08;;;;;;;10.10;4.70;;;14.50;99.90;;;;;;5011576;28;20045;-74
2022/08/29 04:47:34;;;;;;;12.52;4.90;;;14.50;99.90;;;;;;5010740;28;20041;-74
2022/08/29 04:50:00;;;;;;;7.68;4.43;;;14.40;99.90;;;;;;5010416;28;20497;-74
2022/08/29 04:52:27;;;;;;;10.82;4.60;;;14.40;99.90;;;;;;5013252;28;20113;-74
2022/08/29 04:54:53;;;;;;;9.95;4.80;;;14.40;99.90;;;;;;5011292;28;20088;-74
2022/08/29 04:57:19;;;;;;;12.52;4.65;;;14.40;99.90;;;;;;5012725;28;20033;-74
2022/08/29 04:59:44;;;;;;;11.73;5.05;;;14.40;99.90;;;;;;5011597;28;20490;-75
2022/08/29 05:02:10;;;;;;;9.32;4.22;;;14.50;99.90;;;;;;5011047;28;20018;-74
2022/08/29 05:04:36;;;;;;;9.90;4.47;;;14.50;99.90;;;;;;5011169;28;20041;-73
2022/08/29 05:07:02;;;;;;;9.85;4.35;;;14.50;99.90;;;;;;5006311;28;20014;-73
2022/08/29 05:09:27;;;;;;;13.35;5.05;;;14.60;99.90;;;;;;5006328;28;20462;-73
2022/08/29 05:11:53;;;;;;;7.47;4.28;;;14.60;99.90;;;;;;5007282;28;20057;-74
2022/08/29 05:14:18;;;;;;;7.85;4.15;;;14.60;99.90;;;;;;5008103;28;20393;-73
2022/08/29 05:16:44;;;;;;;9.85;4.85;;;14.60;99.90;;;;;;5008339;28;20031;-73
2022/08/29 05:19:10;;;;;;;7.97;4.43;;;14.70;99.90;;;;;;5005784;28;20503;-73
2022/08/29 05:21:38;;;;;;;11.10;4.25;;;14.70;99.90;;;;;;5004321;28;20117;-73
2022/08/29 05:24:06;;;;;;;10.65;4.25;;;14.70;99.90;;;;;;5008496;28;20040;-73
2022/08/29 05:26:35;;;;;;;9.10;4.15;;;14.70;99.90;;;;;;5010100;28;20041;-73
2022/08/29 05:29:01;;;;;;;9.95;4.28;;;14.70;99.90;;;;;;5009697;28;20018;-73
2022/08/29 05:31:27;;;;;;;9.23;4.18;;;14.80;99.90;;;;;;5013076;28;20112;-73
2022/08/29 05:33:53;;;;;;;11.02;4.70;;;14.90;99.90;;;;;;5012816;28;20108;-73
2022/08/29 05:36:19;;;;;;;8.63;4.13;;;14.90;99.90;;;;;;5011393;28;20026;-74
2022/08/29 05:38:45;;;;;;;9.18;4.00;;;15.00;99.90;;;;;;5011741;28;20064;-74
2022/08/29 05:41:11;;;;;;;6.65;4.15;;;15.00;99.90;;;;;;5009878;28;20041;-73
2022/08/29 05:43:36;;;;;;;13.20;4.68;;;15.00;99.90;;;;;;5010823;28;20088;-74
2022/08/29 05:46:08;;;;;;;8.55;4.40;;;15.10;99.90;;;;;;5010116;28;20030;-74
2022/08/29 05:48:34;;;;;;;9.63;4.22;;;15.10;99.90;;;;;;5002843;28;20050;-74
2022/08/29 05:51:01;;;;;;;10.40;4.43;;;15.20;99.90;;;;;;5009873;28;20068;-74
2022/08/29 05:53:26;;;;;;;9.35;4.45;;;15.20;99.90;;;;;;5008888;28;20045;-75
2022/08/29 05:55:52;;;;;;;8.60;4.07;;;15.30;99.90;;;;;;5011160;28;20018;-75
2022/08/29 05:58:18;;;;;;;9.80;3.80;;;15.30;99.90;;;;;;5013295;28;20025;-75
2022/08/29 06:00:45;;;;;;;11.75;4.35;;;15.40;99.90;;;;;;5013104;28;20017;-75
2022/08/29 06:03:12;;;;;;;11.02;4.82;;;15.40;99.90;;;;;;4997298;28;20416;-75
2022/08/29 06:05:39;;;;;;;8.50;4.32;;;15.50;99.90;;;;;;5013678;28;20093;-75
2022/08/29 06:08:06;;;;;;;12.52;6.07;;;15.50;99.90;;;;;;5013160;28;20508;-75
2022/08/29 06:10:32;;;;;;;13.70;5.35;;;15.60;99.90;;;;;;5011977;28;20390;-75
2022/08/29 06:12:58;;;;;;;12.18;4.85;;;15.60;99.90;;;;;;5013819;28;20122;-74
2022/08/29 06:15:27;;;;;;;10.00;5.07;;;15.70;99.90;;;;;;5013387;28;20502;-74
2022/08/29 06:17:54;;;;;;;10.15;4.97;;;15.70;99.90;;;;;;5016528;28;20026;-75
2022/08/29 06:20:20;;;;;;;50.15;7.47;;;15.70;99.90;;;;;;5016005;28;20301;-74
2022/08/29 06:22:45;;;;;;;38.78;6.22;;;15.80;99.90;;;;;;5009847;28;20564;-73
2022/08/29 06:25:12;;;;;;;27.70;5.47;;;15.90;99.90;;;;;;5013540;28;20029;-75
2022/08/29 06:27:37;;;;;;;26.80;6.20;;;15.90;99.90;;;;;;5013520;28;20508;-75
2022/08/29 06:30:04;;;;;;;19.88;5.65;;;16.00;99.90;;;;;;5011811;28;20021;-74
2022/08/29 06:32:30;;;;;;;28.42;6.10;;;16.00;99.90;;;;;;5009122;28;20103;-74
2022/08/29 06:34:55;;;;;;;16.55;4.85;;;16.10;99.90;;;;;;5010205;28;20050;-74
2022/08/29 06:37:21;;;;;;;14.80;4.72;;;16.20;99.90;;;;;;5006869;28;20026;-74
2022/08/29 06:39:46;;;;;;;14.40;3.78;;;16.20;99.90;;;;;;5011308;28;20026;-74
2022/08/29 06:42:12;;;;;;;15.02;4.30;;;16.30;99.90;;;;;;5010999;28;20022;-74
2022/08/29 06:44:38;;;;;;;14.88;4.13;;;16.30;99.90;;;;;;5008334;28;20097;-74
2022/08/29 06:47:03;;;;;;;12.85;4.13;;;16.40;99.90;;;;;;5009693;28;20029;-74
2022/08/29 06:49:31;;;;;;;11.50;4.03;;;16.40;99.90;;;;;;5008525;28;20025;-74
2022/08/29 06:51:57;;;;;;;24.67;4.18;;;16.50;99.90;;;;;;5009022;28;20058;-74
2022/08/29 06:54:25;;;;;;;18.63;3.92;;;16.60;99.90;;;;;;5008420;28;20022;-74
2022/08/29 06:56:51;;;;;;;11.90;3.60;;;16.60;99.90;;;;;;5010473;28;20390;-74
2022/08/29 06:59:18;;;;;;;11.82;3.95;;;16.70;99.90;;;;;;5011543;28;20014;-74
2022/08/29 07:01:44;;;;;;;15.10;4.20;;;16.80;99.90;;;;;;5008014;28;20032;-73
2022/08/29 07:04:11;;;;;;;9.43;3.40;;;16.90;99.90;;;;;;5003393;28;20022;-72
2022/08/29 07:06:38;;;;;;;8.85;3.15;;;17.00;99.90;;;;;;5000473;28;20429;-72
2022/08/29 07:09:06;;;;;;;7.78;3.53;;;17.10;99.90;;;;;;5008385;28;20036;-73
2022/08/29 07:11:32;;;;;;;8.00;3.30;;;17.20;99.90;;;;;;5010393;28;20029;-73
2022/08/29 07:14:00;;;;;;;13.35;3.80;;;17.30;99.90;;;;;;5010894;28;20104;-74
2022/08/29 07:16:27;;;;;;;13.55;3.72;;;17.40;99.90;;;;;;5009113;28;20037;-73
2022/08/29 07:18:53;;;;;;;9.35;3.75;;;17.50;99.90;;;;;;5008879;28;20273;-73
2022/08/29 07:21:22;;;;;;;14.60;3.90;;;17.60;99.90;;;;;;5011642;28;20529;-75
2022/08/29 07:23:49;;;;;;;10.40;4.18;;;17.60;99.90;;;;;;5010847;28;20048;-73
2022/08/29 07:26:24;;;;;;;12.85;4.20;;;17.70;99.90;;;;;;5011256;28;20021;-75
2022/08/29 07:28:51;;;;;;;;;;;17.80;99.90;;;;;;5011677;28;20064;-74
2022/08/29 07:31:17;;;;;;;9.13;4.10;;;17.90;99.90;;;;;;5003611;28;19907;-74
2022/08/29 07:33:43;;;;;;;9.55;3.92;;;18.00;99.90;;;;;;5009192;28;20120;-74
2022/08/29 07:36:08;;;;;;;11.75;4.00;;;18.10;99.90;;;;;;5002745;28;20093;-74
2022/08/29 07:38:36;;;;;;;11.88;4.53;;;18.20;99.90;;;;;;5011621;28;20055;-74
2022/08/29 07:41:07;;;;;;;8.15;3.80;;;18.20;99.90;;;;;;5008888;28;20418;-73
2022/08/29 07:43:33;;;;;;;9.20;3.50;;;18.30;99.90;;;;;;5010207;28;20049;-73
2022/08/29 07:46:08;;;;;;;15.45;4.20;;;18.40;99.90;;;;;;5011507;28;20083;-74
2022/08/29 07:48:34;;;;;;;10.63;3.63;;;18.40;99.90;;;;;;5011668;28;20025;-74
2022/08/29 07:50:59;;;;;;;9.38;3.70;;;18.40;99.90;;;;;;5009541;28;20495;-74
2022/08/29 07:53:25;;;;;;;10.15;4.07;;;18.40;99.90;;;;;;5008036;28;20065;-74
2022/08/29 07:55:51;;;;;;;11.15;4.13;;;18.50;99.90;;;;;;5010531;28;20103;-76
2022/08/29 07:58:16;;;;;;;9.75;3.78;;;18.50;99.90;;;;;;5010189;28;20501;-75
2022/08/29 08:00:42;;;;;;;9.65;3.65;;;18.50;99.90;;;;;;5008715;28;20490;-74
2022/08/29 08:03:09;;;;;;;12.93;3.45;;;18.70;99.90;;;;;;5008615;28;20429;-75
2022/08/29 08:05:36;;;;;;;11.20;3.70;;;18.80;99.90;;;;;;5006102;28;20033;-76
2022/08/29 08:08:02;;;;;;;12.43;3.95;;;18.80;99.90;;;;;;5005162;28;20518;-75
2022/08/29 08:10:27;;;;;;;11.13;3.65;;;19.00;99.90;;;;;;5010838;28;20049;-74
2022/08/29 08:12:53;;;;;;;12.07;3.90;;;19.00;99.90;;;;;;5008595;28;20044;-74
2022/08/29 08:15:20;;;;;;;7.53;3.80;;;19.10;99.90;;;;;;5009859;28;20500;-74
2022/08/29 08:17:46;;;;;;;10.35;3.65;;;19.10;99.90;;;;;;5010075;28;20018;-74
2022/08/29 08:20:12;;;;;;;8.68;3.85;;;19.10;99.90;;;;;;5007039;28;20026;-73
2022/08/29 08:22:38;;;;;;;10.80;3.45;;;19.20;99.90;;;;;;5000367;28;20366;-75
2022/08/29 08:25:04;;;;;;;8.80;4.07;;;19.30;99.90;;;;;;5009750;28;20034;-74
2022/08/29 08:27:30;;;;;;;8.55;3.65;;;19.40;99.90;;;;;;5009362;28;20110;-75
2022/08/29 08:29:56;;;;;;;10.18;3.72;;;19.60;99.90;;;;;;5007674;28;20537;-73
2022/08/29 08:32:21;;;;;;;8.32;3.53;;;19.70;99.90;;;;;;5009673;28;20452;-75
2022/08/29 08:34:48;;;;;;;12.68;3.80;;;19.80;99.90;;;;;;5007432;28;20105;-74
2022/08/29 08:37:13;;;;;;;9.80;3.60;;;19.80;99.90;;;;;;5009490;28;20105;-74
2022/08/29 08:39:39;;;;;;;10.90;3.83;;;19.80;99.90;;;;;;5008486;28;20022;-74
2022/08/29 08:42:17;;;;;;;9.02;3.40;;;19.90;99.90;;;;;;5009830;28;20432;-75
2022/08/29 08:45:06;;;;;;;9.98;3.60;;;20.00;99.90;;;;;;5007802;28;20026;-75
2022/08/29 08:47:49;;;;;;;8.55;3.47;;;20.00;99.90;;;;;;5009489;28;20026;-74
2022/08/29 08:50:39;;;;;;;11.48;3.83;;;20.00;99.90;;;;;;5005979;28;20449;-74
2022/08/29 08:53:13;;;;;;;17.83;3.60;;;20.10;99.90;;;;;;5007899;28;20405;-74
2022/08/29 08:55:46;;;;;;;11.70;3.63;;;20.10;99.90;;;;;;5005962;28;20018;-74
2022/08/29 08:58:35;;;;;;;8.50;3.85;;;20.10;99.90;;;;;;5004761;28;20045;-74
2022/08/29 09:01:20;;;;;;;7.05;3.60;;;20.10;99.90;;;;;;5009362;28;20064;-74
2022/08/29 09:04:27;;;;;;;10.00;3.85;;;20.20;99.90;;;;;;5006518;28;20136;-74
2022/08/29 09:07:07;;;;;;;8.70;3.30;;;20.20;99.90;;;;;;5012065;28;20029;-75
2022/08/29 09:09:54;;;;;;;6.28;3.20;;;20.30;99.90;;;;;;5013466;28;20022;-75
2022/08/29 09:12:50;;;;;;;7.97;3.13;;;20.40;99.90;;;;;;5013331;28;20018;-75
2022/08/29 09:15:23;;;;;;;7.05;3.33;;;20.50;99.80;;;;;;5012628;28;20414;-75
2022/08/29 09:17:51;;;;;;;8.05;3.67;;;20.60;99.60;;;;;;5013295;28;20047;-74
2022/08/29 09:20:24;;;;;;;10.00;3.45;;;20.70;99.40;;;;;;5013153;28;20103;-75
2022/08/29 09:23:00;;;;;;;11.80;3.40;;;20.80;99.30;;;;;;5013361;28;20069;-75
2022/08/29 09:25:28;;;;;;;9.48;3.30;;;21.00;98.80;;;;;;5013065;28;20398;-73
2022/08/29 09:27:54;;;;;;;8.95;3.30;;;21.00;98.20;;;;;;5012491;28;20045;-74
2022/08/29 09:30:25;;;;;;;6.72;3.35;;;21.10;97.90;;;;;;5012028;28;20029;-74
2022/08/29 09:33:03;;;;;;;7.90;2.83;;;21.10;97.50;;;;;;5011258;28;20030;-74
2022/08/29 09:35:41;;;;;;;11.23;3.25;;;21.10;96.90;;;;;;5010344;28;20040;-74
2022/08/29 09:38:09;;;;;;;8.60;3.40;;;21.10;96.70;;;;;;5009985;28;20076;-74
2022/08/29 09:40:49;;;;;;;7.65;3.20;;;21.10;96.40;;;;;;5012129;28;20350;-73
2022/08/29 09:43:17;;;;;;;7.75;3.22;;;21.20;96.20;;;;;;5012338;28;20393;-74
2022/08/29 09:46:01;;;;;;;6.13;3.42;;;21.10;95.90;;;;;;5011826;28;20036;-76
2022/08/29 09:48:27;;;;;;;6.50;3.10;;;21.10;95.50;;;;;;5012085;28;20030;-74
2022/08/29 09:51:27;;;;;;;8.80;3.35;;;21.10;95.20;;;;;;5011801;28;20021;-74
2022/08/29 09:54:08;;;;;;;8.40;2.88;;;21.00;94.90;;;;;;5010591;28;20026;-75
2022/08/29 09:56:36;;;;;;;8.52;2.80;;;20.80;94.90;;;;;;5011666;28;20042;-75
2022/08/29 09:59:15;;;;;;;8.25;3.13;;;20.80;95.20;;;;;;5009357;28;20505;-75
2022/08/29 10:01:41;;;;;;;8.98;3.05;;;20.80;95.30;;;;;;5010377;28;20030;-74
2022/08/29 10:04:07;;;;;;;8.38;3.08;;;20.80;95.40;;;;;;5011535;28;20049;-74
2022/08/29 10:06:38;;;;;;;6.93;3.42;;;20.80;95.20;;;;;;5010711;28;20018;-76
2022/08/29 10:09:08;;;;;;;7.82;3.33;;;20.80;95.10;;;;;;5009716;28;20025;-74
2022/08/29 10:11:48;;;;;;;6.55;3.22;;;20.80;95.20;;;;;;5011729;28;20092;-74
2022/08/29 10:14:32;;;;;;;7.50;3.30;;;20.80;95.20;;;;;;5010984;28;20417;-74
2022/08/29 10:19:51;;;;;;;6.68;3.22;;;20.80;95.10;;;;;;5010762;28;20118;-75
2022/08/29 10:22:39;;;;;;;6.22;2.83;;;20.90;95.10;;;;;;5011899;28;20105;-74
2022/08/29 10:25:12;;;;;;;10.15;3.17;;;21.00;95.20;;;;;;5012083;28;20441;-74
2022/08/29 10:27:44;;;;;;;7.82;3.33;;;21.00;95.20;;;;;;5010756;28;20034;-74
2022/08/29 10:30:15;;;;;;;9.02;3.22;;;21.00;95.20;;;;;;5011078;28;20374;-74
2022/08/29 10:33:08;;;;;;;9.23;3.08;;;21.00;95.20;;;;;;5007317;28;20018;-73
2022/08/29 10:35:50;;;;;;;6.07;2.90;;;21.00;95.00;;;;;;5010658;28;20053;-74
2022/08/29 10:38:21;;;;;;;12.07;3.63;;;20.90;95.10;;;;;;5009758;28;20068;-74
2022/08/29 10:41:12;;;;;;;5.85;2.88;;;20.90;95.10;;;;;;5011001;28;20022;-74
2022/08/29 10:44:20;;;;;;;10.40;3.17;;;20.80;95.10;;;;;;5007368;28;20046;-74
2022/08/29 10:47:13;;;;;;;7.32;3.30;;;20.80;95.20;;;;;;4985092;28;20044;-74
2022/08/29 10:50:01;;;;;;;6.90;3.15;;;20.90;95.30;;;;;;5010463;28;20017;-74
2022/08/29 10:52:54;;;;;;;7.68;2.53;;;20.80;95.40;;;;;;5010816;28;20073;-73
2022/08/29 10:55:35;;;;;;;9.57;3.03;;;20.70;95.80;;;;;;5011165;28;20034;-73
2022/08/29 10:58:45;;;;;;;7.57;3.42;;;20.70;95.90;;;;;;5011483;28;20138;-74
2022/08/29 11:01:22;;;;;;;6.82;3.20;;;20.80;95.90;;;;;;5001977;28;20144;-74
2022/08/29 11:04:18;;;;;;;9.00;3.38;;;20.80;95.80;;;;;;5009386;28;20032;-72
2022/08/29 11:07:01;;;;;;;7.88;3.53;;;21.00;95.70;;;;;;5011556;28;20026;-74
2022/08/29 11:09:34;;;;;;;6.80;3.25;;;21.20;95.60;;;;;;5011246;28;20529;-74
2022/08/29 11:12:08;;;;;;;10.18;3.40;;;21.50;95.10;;;;;;5011191;28;20036;-74
2022/08/29 11:14:39;;;;;;;7.88;3.25;;;21.70;94.70;;;;;;5010965;28;20490;-74
2022/08/29 11:17:08;;;;;;;5.78;3.10;;;21.90;94.50;;;;;;5011411;28;20029;-74
2022/08/29 11:19:51;;;;;;;8.05;3.47;;;22.00;94.50;;;;;;5010794;28;20517;-74
2022/08/29 11:22:24;;;;;;;8.70;3.70;;;22.20;94.20;;;;;;5010886;28;20046;-73
2022/08/29 11:25:06;;;;;;;11.77;3.60;;;22.40;93.80;;;;;;5010549;28;20038;-73
2022/08/29 11:27:55;;;;;;;11.23;3.60;;;22.50;93.20;;;;;;5006683;28;20030;-74
2022/08/29 11:30:31;;;;;;;8.63;3.80;;;22.60;92.90;;;;;;5010077;28;20141;-78
2022/08/29 11:33:21;;;;;;;9.90;3.40;;;22.60;92.40;;;;;;5009106;28;20065;-74
2022/08/29 11:36:05;;;;;;;7.35;3.00;;;22.60;92.40;;;;;;5010898;28;20018;-72
2022/08/29 11:38:58;;;;;;;11.77;3.95;;;22.60;92.40;;;;;;5006296;28;20053;-73
2022/08/29 11:41:44;;;;;;;10.38;3.83;;;22.60;92.40;;;;;;5008241;28;20029;-73
2022/08/29 11:44:14;;;;;;;10.80;3.90;;;22.60;91.90;;;;;;5004508;28;20056;-73
2022/08/29 11:46:44;;;;;;;9.80;3.75;;;22.60;92.10;;;;;;5009339;28;20434;-73
2022/08/29 11:49:43;;;;;;;10.32;3.72;;;22.60;92.00;;;;;;5006943;28;20096;-73
2022/08/29 11:52:11;;;;;;;12.70;4.30;;;22.60;92.00;;;;;;5005468;28;20036;-73
2022/08/29 11:54:37;;;;;;;8.02;3.20;;;22.60;91.90;;;;;;5007101;28;20045;-73
2022/08/29 11:57:03;;;;;;;10.70;3.80;;;22.50;91.90;;;;;;5006918;28;20013;-73
2022/08/29 11:59:44;;;;;;;10.75;4.05;;;22.50;91.90;;;;;;5007755;28;20033;-73
2022/08/29 12:02:30;;;;;;;11.48;3.90;;;22.50;91.80;;;;;;5005247;28;20437;-73
2022/08/29 12:04:59;;;;;;;9.15;3.70;;;22.50;91.70;;;;;;5008188;28;20045;-73
2022/08/29 12:07:40;;;;;;;10.18;3.60;;;22.60;91.20;;;;;;5010114;28;20100;-73
2022/08/29 12:10:18;;;;;;;11.23;3.92;;;22.70;91.00;;;;;;5009666;28;20018;-74
2022/08/29 12:12:57;;;;;;;9.50;3.70;;;22.80;90.90;;;;;;5007699;28;20076;-73
2022/08/29 12:15:26;;;;;;;6.95;3.50;;;22.90;90.30;;;;;;5007418;28;20105;-73
2022/08/29 12:17:53;;;;;;;8.82;3.42;;;22.90;90.10;;;;;;5007698;28;20494;-73
2022/08/29 12:20:34;;;;;;;7.80;3.47;;;23.10;89.90;;;;;;5007647;28;20026;-74
2022/08/29 12:23:11;;;;;;;9.80;3.80;;;23.30;88.40;;;;;;5008306;28;20022;-74
2022/08/29 12:25:52;;;;;;;8.30;3.78;;;23.50;86.60;;;;;;5008809;28;20040;-73
2022/08/29 12:28:24;;;;;;;6.93;3.40;;;23.60;85.70;;;;;;5006739;28;20021;-73
2022/08/29 12:30:57;;;;;;;6.28;3.42;;;23.80;85.10;;;;;;5007098;28;20054;-73
2022/08/29 12:33:35;;;;;;;6.78;3.63;;;24.00;83.80;;;;;;5008140;28;20021;-73
2022/08/29 12:36:00;;;;;;;7.90;3.53;;;24.10;81.50;;;;;;5002368;28;20037;-73
2022/08/29 12:38:32;;;;;;;7.97;3.83;;;24.10;81.00;;;;;;5001724;28;20030;-73
2022/08/29 12:41:07;;;;;;;6.93;3.70;;;24.10;81.10;;;;;;5007326;28;20026;-73
2022/08/29 12:43:42;;;;;;;6.65;3.25;;;24.20;80.30;;;;;;5003902;28;20050;-73
2022/08/29 12:46:13;;;;;;;7.38;3.85;;;24.20;80.70;;;;;;5004144;28;20026;-73
2022/08/29 12:48:44;;;;;;;7.53;3.30;;;24.10;79.50;;;;;;5008690;28;20026;-73
2022/08/29 12:51:32;;;;;;;6.28;3.55;;;24.10;79.30;;;;;;5007299;28;20082;-73
2022/08/29 12:53:57;;;;;;;7.38;3.78;;;24.10;79.50;;;;;;5007688;28;20056;-73
2022/08/29 12:56:24;;;;;;;5.93;3.35;;;24.00;80.20;;;;;;5007595;28;20053;-73
2022/08/29 12:58:50;;;;;;;6.43;3.40;;;24.00;80.10;;;;;;5004818;28;20101;-73
2022/08/29 13:01:29;;;;;;;10.50;3.60;;;24.00;79.70;;;;;;5006811;28;20069;-73
2022/08/29 13:04:09;;;;;;;7.53;3.90;;;24.00;79.30;;;;;;5005237;28;20437;-73
2022/08/29 13:06:35;;;;;;;10.68;3.70;;;24.00;79.40;;;;;;5004490;28;20420;-74